< < Back
Terminal Aerodrome Forecast


Current Version              Previous Versions:   1  2  3  4  5  6  7  8  9  

Terminal Aerodrome Forecast

211
FTUS42 KTAE 031721
TAFABY
TAF
KABY 031721Z 0318/0418 27012KT P6SM VCTS BKN035CB
      TEMPO 0321/0401 1SM +TSRA OVC020CB
     FM040300 29005KT P6SM BKN012
     FM040600 33006KT P6SM BKN040=



Latest METAR

604
SAUS70 KWBC 040800 RRE
MTRABY
METAR KABY 040753Z AUTO 29005KT 10SM OVC060 20/18 A2982 RMK AO2 SLP096
T02000178 $


USA.gov is the U.S. government's official web portal to all federal, state and local government web resources and services.